sensor_id;sensor_type;location;lat;lon;timestamp;pressure;altitude;pressure_sealevel;temperature
13410;BMP180;6775;49.574;11.170;2024-02-23T00:01:41;95307.81;;;10.18
13410;BMP180;6775;49.574;11.170;2024-02-23T00:04:09;95315.69;;;10.16
13410;BMP180;6775;49.574;11.170;2024-02-23T00:06:38;95302.25;;;10.14
13410;BMP180;6775;49.574;11.170;2024-02-23T00:09:06;95304.81;;;10.14
13410;BMP180;6775;49.574;11.170;2024-02-23T00:11:34;95306.59;;;10.14
13410;BMP180;6775;49.574;11.170;2024-02-23T00:14:06;95322.28;;;10.11
13410;BMP180;6775;49.574;11.170;2024-02-23T00:16:38;95332.28;;;10.06
13410;BMP180;6775;49.574;11.170;2024-02-23T00:19:09;95332.63;;;10.03
13410;BMP180;6775;49.574;11.170;2024-02-23T00:21:38;95339.06;;;9.99
13410;BMP180;6775;49.574;11.170;2024-02-23T00:24:07;95343.75;;;9.96
13410;BMP180;6775;49.574;11.170;2024-02-23T00:26:35;95341.34;;;9.94
13410;BMP180;6775;49.574;11.170;2024-02-23T00:29:03;95337.16;;;9.93
13410;BMP180;6775;49.574;11.170;2024-02-23T00:31:31;95336.53;;;9.91
13410;BMP180;6775;49.574;11.170;2024-02-23T00:33:59;95340.03;;;9.90
13410;BMP180;6775;49.574;11.170;2024-02-23T00:36:29;95342.31;;;9.85
13410;BMP180;6775;49.574;11.170;2024-02-23T00:38:57;95355.47;;;9.82
13410;BMP180;6775;49.574;11.170;2024-02-23T00:41:25;95368.63;;;9.79
13410;BMP180;6775;49.574;11.170;2024-02-23T00:43:53;95385.63;;;9.80
13410;BMP180;6775;49.574;11.170;2024-02-23T00:46:22;95382.56;;;9.77
13410;BMP180;6775;49.574;11.170;2024-02-23T00:48:50;95394.94;;;9.73
13410;BMP180;6775;49.574;11.170;2024-02-23T00:51:18;95404.25;;;9.74
13410;BMP180;6775;49.574;11.170;2024-02-23T00:53:48;95412.78;;;9.67
13410;BMP180;6775;49.574;11.170;2024-02-23T00:56:16;95433.75;;;9.62
13410;BMP180;6775;49.574;11.170;2024-02-23T00:58:44;95428.00;;;9.60
13410;BMP180;6775;49.574;11.170;2024-02-23T01:01:12;95435.56;;;9.54
13410;BMP180;6775;49.574;11.170;2024-02-23T01:03:41;95444.56;;;9.50
13410;BMP180;6775;49.574;11.170;2024-02-23T01:06:09;95429.50;;;9.47
13410;BMP180;6775;49.574;11.170;2024-02-23T01:08:37;95445.38;;;9.43
13410;BMP180;6775;49.574;11.170;2024-02-23T01:11:08;95432.41;;;9.36
13410;BMP180;6775;49.574;11.170;2024-02-23T01:13:36;95442.81;;;9.27
13410;BMP180;6775;49.574;11.170;2024-02-23T01:16:05;95429.41;;;9.17
13410;BMP180;6775;49.574;11.170;2024-02-23T01:18:33;95443.16;;;9.16
13410;BMP180;6775;49.574;11.170;2024-02-23T01:21:02;95453.41;;;9.08
13410;BMP180;6775;49.574;11.170;2024-02-23T01:23:30;95470.09;;;9.04
13410;BMP180;6775;49.574;11.170;2024-02-23T01:25:58;95458.56;;;9.00
13410;BMP180;6775;49.574;11.170;2024-02-23T01:28:28;95459.50;;;8.99
13410;BMP180;6775;49.574;11.170;2024-02-23T01:30:56;95452.63;;;8.92
13410;BMP180;6775;49.574;11.170;2024-02-23T01:33:24;95447.66;;;8.82
13410;BMP180;6775;49.574;11.170;2024-02-23T01:35:53;95454.38;;;8.75
13410;BMP180;6775;49.574;11.170;2024-02-23T01:38:21;95478.06;;;8.69
13410;BMP180;6775;49.574;11.170;2024-02-23T01:40:51;95466.38;;;8.67
13410;BMP180;6775;49.574;11.170;2024-02-23T01:43:20;95456.44;;;8.64
13410;BMP180;6775;49.574;11.170;2024-02-23T01:45:49;95463.97;;;8.57
13410;BMP180;6775;49.574;11.170;2024-02-23T01:48:18;95485.88;;;8.52
13410;BMP180;6775;49.574;11.170;2024-02-23T01:50:47;95464.41;;;8.45
13410;BMP180;6775;49.574;11.170;2024-02-23T01:53:15;95478.97;;;8.45
13410;BMP180;6775;49.574;11.170;2024-02-23T01:55:47;95488.09;;;8.39
13410;BMP180;6775;49.574;11.170;2024-02-23T01:58:15;95490.31;;;8.34
13410;BMP180;6775;49.574;11.170;2024-02-23T02:00:43;95486.47;;;8.30
13410;BMP180;6775;49.574;11.170;2024-02-23T02:03:13;95486.94;;;8.26
13410;BMP180;6775;49.574;11.170;2024-02-23T02:05:41;95498.44;;;8.22
13410;BMP180;6775;49.574;11.170;2024-02-23T02:08:11;95492.69;;;8.20
13410;BMP180;6775;49.574;11.170;2024-02-23T02:10:41;95500.00;;;8.15
13410;BMP180;6775;49.574;11.170;2024-02-23T02:13:10;95527.50;;;8.13
13410;BMP180;6775;49.574;11.170;2024-02-23T02:15:38;95530.34;;;8.10
13410;BMP180;6775;49.574;11.170;2024-02-23T02:18:06;95509.06;;;8.09
13410;BMP180;6775;49.574;11.170;2024-02-23T02:20:38;95529.03;;;8.06
13410;BMP180;6775;49.574;11.170;2024-02-23T02:23:08;95522.47;;;8.03
13410;BMP180;6775;49.574;11.170;2024-02-23T02:25:37;95530.44;;;8.01
13410;BMP180;6775;49.574;11.170;2024-02-23T02:28:06;95533.16;;;7.99
13410;BMP180;6775;49.574;11.170;2024-02-23T02:30:35;95540.03;;;7.99
13410;BMP180;6775;49.574;11.170;2024-02-23T02:33:03;95551.22;;;7.98
13410;BMP180;6775;49.574;11.170;2024-02-23T02:35:32;95566.06;;;7.94
13410;BMP180;6775;49.574;11.170;2024-02-23T02:38:01;95569.56;;;7.93
13410;BMP180;6775;49.574;11.170;2024-02-23T02:40:29;95575.94;;;7.89
13410;BMP180;6775;49.574;11.170;2024-02-23T02:42:58;95569.06;;;7.90
13410;BMP180;6775;49.574;11.170;2024-02-23T02:45:26;95578.50;;;7.89
13410;BMP180;6775;49.574;11.170;2024-02-23T02:47:55;95571.91;;;7.87
13410;BMP180;6775;49.574;11.170;2024-02-23T02:50:23;95575.75;;;7.83
13410;BMP180;6775;49.574;11.170;2024-02-23T02:52:51;95572.97;;;7.76
13410;BMP180;6775;49.574;11.170;2024-02-23T02:55:21;95580.81;;;7.75
13410;BMP180;6775;49.574;11.170;2024-02-23T02:57:49;95585.44;;;7.71
13410;BMP180;6775;49.574;11.170;2024-02-23T03:00:17;95582.19;;;7.69
13410;BMP180;6775;49.574;11.170;2024-02-23T03:02:46;95588.13;;;7.70
13410;BMP180;6775;49.574;11.170;2024-02-23T03:05:14;95598.34;;;7.70
13410;BMP180;6775;49.574;11.170;2024-02-23T03:07:42;95599.44;;;7.67
13410;BMP180;6775;49.574;11.170;2024-02-23T03:10:10;95601.84;;;7.69
13410;BMP180;6775;49.574;11.170;2024-02-23T03:12:40;95594.34;;;7.67
13410;BMP180;6775;49.574;11.170;2024-02-23T03:15:09;95608.06;;;7.66
13410;BMP180;6775;49.574;11.170;2024-02-23T03:17:38;95603.88;;;7.65
13410;BMP180;6775;49.574;11.170;2024-02-23T03:20:08;95608.38;;;7.63
13410;BMP180;6775;49.574;11.170;2024-02-23T03:22:37;95608.50;;;7.62
13410;BMP180;6775;49.574;11.170;2024-02-23T03:25:06;95611.38;;;7.59
13410;BMP180;6775;49.574;11.170;2024-02-23T03:27:36;95603.22;;;7.55
13410;BMP180;6775;49.574;11.170;2024-02-23T03:30:07;95616.56;;;7.50
13410;BMP180;6775;49.574;11.170;2024-02-23T03:32:36;95625.34;;;7.47
13410;BMP180;6775;49.574;11.170;2024-02-23T03:35:07;95612.56;;;7.47
13410;BMP180;6775;49.574;11.170;2024-02-23T03:37:36;95636.00;;;7.43
13410;BMP180;6775;49.574;11.170;2024-02-23T03:40:06;95640.59;;;7.39
13410;BMP180;6775;49.574;11.170;2024-02-23T03:42:35;95635.00;;;7.36
13410;BMP180;6775;49.574;11.170;2024-02-23T03:45:06;95643.88;;;7.32
13410;BMP180;6775;49.574;11.170;2024-02-23T03:47:34;95653.31;;;7.31
13410;BMP180;6775;49.574;11.170;2024-02-23T03:50:04;95653.31;;;7.31
13410;BMP180;6775;49.574;11.170;2024-02-23T03:52:32;95647.38;;;7.31
13410;BMP180;6775;49.574;11.170;2024-02-23T03:55:00;95643.25;;;7.30
13410;BMP180;6775;49.574;11.170;2024-02-23T03:57:31;95661.25;;;7.28
13410;BMP180;6775;49.574;11.170;2024-02-23T04:00:00;95652.13;;;7.26
13410;BMP180;6775;49.574;11.170;2024-02-23T04:02:29;95653.22;;;7.23
13410;BMP180;6775;49.574;11.170;2024-02-23T04:04:57;95651.75;;;7.21
13410;BMP180;6775;49.574;11.170;2024-02-23T04:07:26;95646.66;;;7.21
13410;BMP180;6775;49.574;11.170;2024-02-23T04:09:54;95650.16;;;7.20
13410;BMP180;6775;49.574;11.170;2024-02-23T04:12:22;95645.84;;;7.20
13410;BMP180;6775;49.574;11.170;2024-02-23T04:14:51;95640.09;;;7.18
13410;BMP180;6775;49.574;11.170;2024-02-23T04:17:19;95639.41;;;7.16
13410;BMP180;6775;49.574;11.170;2024-02-23T04:19:49;95637.81;;;7.15
13410;BMP180;6775;49.574;11.170;2024-02-23T04:22:17;95647.88;;;7.17
13410;BMP180;6775;49.574;11.170;2024-02-23T04:24:45;95645.06;;;7.20
13410;BMP180;6775;49.574;11.170;2024-02-23T04:27:13;95654.31;;;7.21
13410;BMP180;6775;49.574;11.170;2024-02-23T04:29:41;95662.78;;;7.21
13410;BMP180;6775;49.574;11.170;2024-02-23T04:32:09;95661.19;;;7.20
13410;BMP180;6775;49.574;11.170;2024-02-23T04:34:38;95668.06;;;7.20
13410;BMP180;6775;49.574;11.170;2024-02-23T04:37:08;95669.63;;;7.21
13410;BMP180;6775;49.574;11.170;2024-02-23T04:39:36;95670.59;;;7.20
13410;BMP180;6775;49.574;11.170;2024-02-23T04:42:08;95670.88;;;7.17
13410;BMP180;6775;49.574;11.170;2024-02-23T04:44:36;95679.34;;;7.17
13410;BMP180;6775;49.574;11.170;2024-02-23T04:47:05;95685.41;;;7.16
13410;BMP180;6775;49.574;11.170;2024-02-23T04:49:33;95683.78;;;7.15
13410;BMP180;6775;49.574;11.170;2024-02-23T04:52:02;95697.38;;;7.16
13410;BMP180;6775;49.574;11.170;2024-02-23T04:54:31;95676.69;;;7.09
13410;BMP180;6775;49.574;11.170;2024-02-23T04:56:59;95687.34;;;7.05
13410;BMP180;6775;49.574;11.170;2024-02-23T04:59:28;95689.25;;;7.03
13410;BMP180;6775;49.574;11.170;2024-02-23T05:01:58;95696.25;;;7.01
13410;BMP180;6775;49.574;11.170;2024-02-23T05:04:26;95707.56;;;6.99
13410;BMP180;6775;49.574;11.170;2024-02-23T05:06:55;95714.25;;;7.00
13410;BMP180;6775;49.574;11.170;2024-02-23T05:09:23;95702.47;;;6.99
13410;BMP180;6775;49.574;11.170;2024-02-23T05:11:52;95704.88;;;7.00
13410;BMP180;6775;49.574;11.170;2024-02-23T05:14:21;95693.97;;;6.98
13410;BMP180;6775;49.574;11.170;2024-02-23T05:16:49;95693.31;;;6.96
13410;BMP180;6775;49.574;11.170;2024-02-23T05:19:17;95681.19;;;6.98
13410;BMP180;6775;49.574;11.170;2024-02-23T05:21:45;95692.25;;;6.99
13410;BMP180;6775;49.574;11.170;2024-02-23T05:24:13;95697.78;;;6.94
13410;BMP180;6775;49.574;11.170;2024-02-23T05:26:42;95693.63;;;6.93
13410;BMP180;6775;49.574;11.170;2024-02-23T05:29:12;95698.72;;;6.93
13410;BMP180;6775;49.574;11.170;2024-02-23T05:31:47;95700.34;;;6.94
13410;BMP180;6775;49.574;11.170;2024-02-23T05:34:16;95699.78;;;6.91
13410;BMP180;6775;49.574;11.170;2024-02-23T05:36:45;95700.59;;;6.91
13410;BMP180;6775;49.574;11.170;2024-02-23T05:39:14;95688.78;;;6.90
13410;BMP180;6775;49.574;11.170;2024-02-23T05:41:43;95688.13;;;6.88
13410;BMP180;6775;49.574;11.170;2024-02-23T05:44:13;95690.94;;;6.85
13410;BMP180;6775;49.574;11.170;2024-02-23T05:46:43;95687.47;;;6.86
13410;BMP180;6775;49.574;11.170;2024-02-23T05:49:12;95691.78;;;6.86
13410;BMP180;6775;49.574;11.170;2024-02-23T05:51:40;95691.78;;;6.86
13410;BMP180;6775;49.574;11.170;2024-02-23T05:54:09;95692.28;;;6.89
13410;BMP180;6775;49.574;11.170;2024-02-23T05:56:38;95680.44;;;6.88
13410;BMP180;6775;49.574;11.170;2024-02-23T05:59:06;95681.72;;;6.84
13410;BMP180;6775;49.574;11.170;2024-02-23T06:01:36;95696.34;;;6.82
13410;BMP180;6775;49.574;11.170;2024-02-23T06:04:04;95709.78;;;6.84
13410;BMP180;6775;49.574;11.170;2024-02-23T06:06:32;95715.84;;;6.83
13410;BMP180;6775;49.574;11.170;2024-02-23T06:09:01;95710.44;;;6.86
13410;BMP180;6775;49.574;11.170;2024-02-23T06:11:29;95723.47;;;6.93
13410;BMP180;6775;49.574;11.170;2024-02-23T06:13:58;95731.22;;;6.91
13410;BMP180;6775;49.574;11.170;2024-02-23T06:16:26;95731.22;;;6.91
13410;BMP180;6775;49.574;11.170;2024-02-23T06:18:55;95739.56;;;6.93
13410;BMP180;6775;49.574;11.170;2024-02-23T06:21:23;95739.28;;;6.96
13410;BMP180;6775;49.574;11.170;2024-02-23T06:23:52;95745.34;;;6.95
13410;BMP180;6775;49.574;11.170;2024-02-23T06:26:21;95754.91;;;6.93
13410;BMP180;6775;49.574;11.170;2024-02-23T06:28:49;95769.53;;;6.91
13410;BMP180;6775;49.574;11.170;2024-02-23T06:31:18;95775.59;;;6.90
13410;BMP180;6775;49.574;11.170;2024-02-23T06:33:46;95769.16;;;6.86
13410;BMP180;6775;49.574;11.170;2024-02-23T06:36:18;95790.38;;;6.87
13410;BMP180;6775;49.574;11.170;2024-02-23T06:38:46;95789.06;;;6.83
13410;BMP180;6775;49.574;11.170;2024-02-23T06:41:14;95790.00;;;6.82
13410;BMP180;6775;49.574;11.170;2024-02-23T06:43:43;95786.66;;;6.81
13410;BMP180;6775;49.574;11.170;2024-02-23T06:46:11;95778.31;;;6.79
13410;BMP180;6775;49.574;11.170;2024-02-23T06:48:39;95768.09;;;6.79
13410;BMP180;6775;49.574;11.170;2024-02-23T06:51:08;95767.06;;;6.72
13410;BMP180;6775;49.574;11.170;2024-02-23T06:53:38;95781.06;;;6.68
13410;BMP180;6775;49.574;11.170;2024-02-23T06:56:06;95785.63;;;6.65
13410;BMP180;6775;49.574;11.170;2024-02-23T06:58:34;95790.88;;;6.63
13410;BMP180;6775;49.574;11.170;2024-02-23T07:01:03;95796.75;;;6.64
13410;BMP180;6775;49.574;11.170;2024-02-23T07:03:33;95800.16;;;6.64
13410;BMP180;6775;49.574;11.170;2024-02-23T07:06:03;95805.25;;;6.64
13410;BMP180;6775;49.574;11.170;2024-02-23T07:08:31;95804.13;;;6.67
13410;BMP180;6775;49.574;11.170;2024-02-23T07:11:00;95802.56;;;6.66
13410;BMP180;6775;49.574;11.170;2024-02-23T07:13:29;95805.09;;;6.66
13410;BMP180;6775;49.574;11.170;2024-02-23T07:16:00;95795.03;;;6.64
13410;BMP180;6775;49.574;11.170;2024-02-23T07:18:28;95795.69;;;6.66
13410;BMP180;6775;49.574;11.170;2024-02-23T07:20:56;95785.34;;;6.68
13410;BMP180;6775;49.574;11.170;2024-02-23T07:23:24;95787.75;;;6.69
13410;BMP180;6775;49.574;11.170;2024-02-23T07:25:53;95783.63;;;6.68
13410;BMP180;6775;49.574;11.170;2024-02-23T07:28:23;95778.38;;;6.70
13410;BMP180;6775;49.574;11.170;2024-02-23T07:30:51;95777.81;;;6.76
13410;BMP180;6775;49.574;11.170;2024-02-23T07:33:19;95770.66;;;6.79
13410;BMP180;6775;49.574;11.170;2024-02-23T07:35:48;95771.06;;;6.84
13410;BMP180;6775;49.574;11.170;2024-02-23T07:38:16;95776.41;;;6.91
13410;BMP180;6775;49.574;11.170;2024-02-23T07:40:45;95787.16;;;6.94
13410;BMP180;6775;49.574;11.170;2024-02-23T07:43:13;95784.59;;;6.94
13410;BMP180;6775;49.574;11.170;2024-02-23T07:45:43;95802.72;;;6.91
13410;BMP180;6775;49.574;11.170;2024-02-23T07:48:11;95802.72;;;6.91
13410;BMP180;6775;49.574;11.170;2024-02-23T07:50:39;95808.09;;;6.88
13410;BMP180;6775;49.574;11.170;2024-02-23T07:53:08;95807.19;;;6.89
13410;BMP180;6775;49.574;11.170;2024-02-23T07:55:36;95811.34;;;6.90
13410;BMP180;6775;49.574;11.170;2024-02-23T07:58:04;95812.94;;;6.91
13410;BMP180;6775;49.574;11.170;2024-02-23T08:00:33;95821.56;;;6.90
13410;BMP180;6775;49.574;11.170;2024-02-23T08:03:06;95823.28;;;6.90
13410;BMP180;6775;49.574;11.170;2024-02-23T08:05:35;95820.88;;;6.88
13410;BMP180;6775;49.574;11.170;2024-02-23T08:08:04;95825.69;;;6.91
13410;BMP180;6775;49.574;11.170;2024-02-23T08:10:34;95836.31;;;6.96
13410;BMP180;6775;49.574;11.170;2024-02-23T08:13:02;95832.16;;;6.95
13410;BMP180;6775;49.574;11.170;2024-02-23T08:15:30;95827.72;;;6.97
13410;BMP180;6775;49.574;11.170;2024-02-23T08:17:58;95828.94;;;6.93
13410;BMP180;6775;49.574;11.170;2024-02-23T08:20:28;95821.28;;;6.93
13410;BMP180;6775;49.574;11.170;2024-02-23T08:22:56;95805.69;;;6.96
13410;BMP180;6775;49.574;11.170;2024-02-23T08:25:24;95796.78;;;7.00
13410;BMP180;6775;49.574;11.170;2024-02-23T08:27:55;95781.19;;;7.03
13410;BMP180;6775;49.574;11.170;2024-02-23T08:30:23;95781.56;;;7.08
13410;BMP180;6775;49.574;11.170;2024-02-23T08:32:51;95794.28;;;7.17
13410;BMP180;6775;49.574;11.170;2024-02-23T08:35:20;95813.38;;;7.23
13410;BMP180;6775;49.574;11.170;2024-02-23T08:37:49;95834.97;;;7.28
13410;BMP180;6775;49.574;11.170;2024-02-23T08:40:18;95837.91;;;7.33
13410;BMP180;6775;49.574;11.170;2024-02-23T08:42:46;95842.44;;;7.39
13410;BMP180;6775;49.574;11.170;2024-02-23T08:45:16;95828.03;;;7.48
13410;BMP180;6775;49.574;11.170;2024-02-23T08:47:44;95828.47;;;7.60
13410;BMP180;6775;49.574;11.170;2024-02-23T08:50:13;95831.13;;;7.68
13410;BMP180;6775;49.574;11.170;2024-02-23T08:52:41;95842.09;;;7.78
13410;BMP180;6775;49.574;11.170;2024-02-23T08:55:11;95849.91;;;7.77
13410;BMP180;6775;49.574;11.170;2024-02-23T08:57:39;95852.59;;;7.75
13410;BMP180;6775;49.574;11.170;2024-02-23T09:00:09;95851.44;;;7.70
13410;BMP180;6775;49.574;11.170;2024-02-23T09:02:42;95856.16;;;7.65
13410;BMP180;6775;49.574;11.170;2024-02-23T09:05:10;95865.31;;;7.67
13410;BMP180;6775;49.574;11.170;2024-02-23T09:07:38;95856.72;;;7.68
13410;BMP180;6775;49.574;11.170;2024-02-23T09:10:09;95858.28;;;7.69
13410;BMP180;6775;49.574;11.170;2024-02-23T09:12:38;95867.94;;;7.75
13410;BMP180;6775;49.574;11.170;2024-02-23T09:15:08;95856.41;;;7.71
13410;BMP180;6775;49.574;11.170;2024-02-23T09:17:36;95846.75;;;7.65
13410;BMP180;6775;49.574;11.170;2024-02-23T09:20:05;95844.19;;;7.65
13410;BMP180;6775;49.574;11.170;2024-02-23T09:22:34;95853.47;;;7.66
13410;BMP180;6775;49.574;11.170;2024-02-23T09:25:05;95860.19;;;7.67
13410;BMP180;6775;49.574;11.170;2024-02-23T09:27:34;95868.00;;;7.66
13410;BMP180;6775;49.574;11.170;2024-02-23T09:30:12;95872.31;;;7.65
13410;BMP180;6775;49.574;11.170;2024-02-23T09:32:40;95869.75;;;7.65
13410;BMP180;6775;49.574;11.170;2024-02-23T09:35:09;95868.81;;;7.66
13410;BMP180;6775;49.574;11.170;2024-02-23T09:37:37;95873.91;;;7.66
13410;BMP180;6775;49.574;11.170;2024-02-23T09:40:08;95862.66;;;7.59
13410;BMP180;6775;49.574;11.170;2024-02-23T09:42:39;95858.69;;;7.48
13410;BMP180;6775;49.574;11.170;2024-02-23T09:45:08;95863.03;;;7.38
13410;BMP180;6775;49.574;11.170;2024-02-23T09:47:39;95862.09;;;7.39
13410;BMP180;6775;49.574;11.170;2024-02-23T09:50:10;95876.22;;;7.43
13410;BMP180;6775;49.574;11.170;2024-02-23T09:52:38;95875.63;;;7.49
13410;BMP180;6775;49.574;11.170;2024-02-23T09:55:08;95883.66;;;7.53
13410;BMP180;6775;49.574;11.170;2024-02-23T09:57:39;95891.34;;;7.53
13410;BMP180;6775;49.574;11.170;2024-02-23T10:00:09;95895.13;;;7.50
13410;BMP180;6775;49.574;11.170;2024-02-23T10:02:40;95907.38;;;7.46
13410;BMP180;6775;49.574;11.170;2024-02-23T10:05:10;95904.31;;;7.43
13410;BMP180;6775;49.574;11.170;2024-02-23T10:07:40;95912.09;;;7.41
13410;BMP180;6775;49.574;11.170;2024-02-23T10:10:09;95902.69;;;7.42
13410;BMP180;6775;49.574;11.170;2024-02-23T10:12:39;95901.75;;;7.43
13410;BMP180;6775;49.574;11.170;2024-02-23T10:15:08;95890.16;;;7.48
13410;BMP180;6775;49.574;11.170;2024-02-23T10:17:37;95899.00;;;7.53
13410;BMP180;6775;49.574;11.170;2024-02-23T10:20:07;95897.38;;;7.52
13410;BMP180;6775;49.574;11.170;2024-02-23T10:22:37;95905.06;;;7.52
13410;BMP180;6775;49.574;11.170;2024-02-23T10:25:06;95899.72;;;7.46
13410;BMP180;6775;49.574;11.170;2024-02-23T10:27:34;95902.56;;;7.43
13410;BMP180;6775;49.574;11.170;2024-02-23T10:30:06;95897.88;;;7.39
13410;BMP180;6775;49.574;11.170;2024-02-23T10:32:38;95903.00;;;7.39
13410;BMP180;6775;49.574;11.170;2024-02-23T10:35:13;95908.88;;;7.39
13410;BMP180;6775;49.574;11.170;2024-02-23T10:37:43;95909.03;;;7.38
13410;BMP180;6775;49.574;11.170;2024-02-23T10:40:12;95904.19;;;7.44
13410;BMP180;6775;49.574;11.170;2024-02-23T10:42:44;95902.28;;;7.46
13410;BMP180;6775;49.574;11.170;2024-02-23T10:45:20;95910.44;;;7.50
13410;BMP180;6775;49.574;11.170;2024-02-23T10:47:50;95916.25;;;7.52
13410;BMP180;6775;49.574;11.170;2024-02-23T10:50:19;95911.94;;;7.52
13410;BMP180;6775;49.574;11.170;2024-02-23T10:52:50;95910.84;;;7.54
13410;BMP180;6775;49.574;11.170;2024-02-23T10:55:18;95900.34;;;7.57
13410;BMP180;6775;49.574;11.170;2024-02-23T10:57:51;95901.00;;;7.59
13410;BMP180;6775;49.574;11.170;2024-02-23T11:00:23;95894.66;;;7.63
13410;BMP180;6775;49.574;11.170;2024-02-23T11:02:54;95900.31;;;7.67
13410;BMP180;6775;49.574;11.170;2024-02-23T11:05:23;95899.19;;;7.69
13410;BMP180;6775;49.574;11.170;2024-02-23T11:07:55;95894.38;;;7.66
13410;BMP180;6775;49.574;11.170;2024-02-23T11:10:23;95898.16;;;7.62
13410;BMP180;6775;49.574;11.170;2024-02-23T11:12:58;95896.72;;;7.60
13410;BMP180;6775;49.574;11.170;2024-02-23T11:15:30;95899.63;;;7.65
13410;BMP180;6775;49.574;11.170;2024-02-23T11:18:00;95902.19;;;7.65
13410;BMP180;6775;49.574;11.170;2024-02-23T11:20:35;95895.75;;;7.61
13410;BMP180;6775;49.574;11.170;2024-02-23T11:23:13;95885.66;;;7.59
13410;BMP180;6775;49.574;11.170;2024-02-23T11:25:42;95887.41;;;7.59
13410;BMP180;6775;49.574;11.170;2024-02-23T11:28:22;95886.69;;;7.66
13410;BMP180;6775;49.574;11.170;2024-02-23T11:30:53;95884.53;;;7.71
13410;BMP180;6775;49.574;11.170;2024-02-23T11:33:28;95883.97;;;7.77
13410;BMP180;6775;49.574;11.170;2024-02-23T11:36:06;95887.84;;;7.81
13410;BMP180;6775;49.574;11.170;2024-02-23T11:38:35;95887.28;;;7.87
13410;BMP180;6775;49.574;11.170;2024-02-23T11:41:04;95890.19;;;7.92
13410;BMP180;6775;49.574;11.170;2024-02-23T11:43:35;95880.50;;;7.96
13410;BMP180;6775;49.574;11.170;2024-02-23T11:46:05;95878.44;;;7.99
13410;BMP180;6775;49.574;11.170;2024-02-23T11:48:33;95867.56;;;7.97
13410;BMP180;6775;49.574;11.170;2024-02-23T11:51:01;95869.00;;;8.00
13410;BMP180;6775;49.574;11.170;2024-02-23T11:53:30;95878.88;;;7.95
13410;BMP180;6775;49.574;11.170;2024-02-23T11:55:58;95874.56;;;7.95
13410;BMP180;6775;49.574;11.170;2024-02-23T11:58:26;95875.53;;;7.94
13410;BMP180;6775;49.574;11.170;2024-02-23T12:00:54;95883.84;;;7.96
13410;BMP180;6775;49.574;11.170;2024-02-23T12:03:24;95871.34;;;7.93
13410;BMP180;6775;49.574;11.170;2024-02-23T12:05:53;95865.78;;;7.98
13410;BMP180;6775;49.574;11.170;2024-02-23T12:08:23;95860.91;;;8.04
13410;BMP180;6775;49.574;11.170;2024-02-23T12:10:53;95866.38;;;8.09
13410;BMP180;6775;49.574;11.170;2024-02-23T12:13:23;95855.88;;;8.12
13410;BMP180;6775;49.574;11.170;2024-02-23T12:15:53;95856.81;;;8.11
13410;BMP180;6775;49.574;11.170;2024-02-23T12:18:21;95864.47;;;8.11
13410;BMP180;6775;49.574;11.170;2024-02-23T12:20:59;95847.78;;;8.16
13410;BMP180;6775;49.574;11.170;2024-02-23T12:23:27;95834.03;;;8.17
13410;BMP180;6775;49.574;11.170;2024-02-23T12:25:56;95840.25;;;8.15
13410;BMP180;6775;49.574;11.170;2024-02-23T12:28:26;95840.63;;;8.20
13410;BMP180;6775;49.574;11.170;2024-02-23T12:31:01;95833.75;;;8.20
13410;BMP180;6775;49.574;11.170;2024-02-23T12:33:31;95838.06;;;8.20
13410;BMP180;6775;49.574;11.170;2024-02-23T12:36:03;95836.94;;;8.22
13410;BMP180;6775;49.574;11.170;2024-02-23T12:38:32;95839.38;;;8.24
13410;BMP180;6775;49.574;11.170;2024-02-23T12:41:02;95839.06;;;8.27
13410;BMP180;6775;49.574;11.170;2024-02-23T12:43:30;95843.09;;;8.29
13410;BMP180;6775;49.574;11.170;2024-02-23T12:45:58;95839.16;;;8.35
13410;BMP180;6775;49.574;11.170;2024-02-23T12:48:28;95837.19;;;8.29
13410;BMP180;6775;49.574;11.170;2024-02-23T12:50:56;95841.13;;;8.23
13410;BMP180;6775;49.574;11.170;2024-02-23T12:53:34;95835.38;;;8.21
13410;BMP180;6775;49.574;11.170;2024-02-23T12:56:04;95831.34;;;8.19
13410;BMP180;6775;49.574;11.170;2024-02-23T12:58:36;95828.47;;;8.22
13410;BMP180;6775;49.574;11.170;2024-02-23T13:01:05;95827.53;;;8.23
13410;BMP180;6775;49.574;11.170;2024-02-23T13:03:35;95825.13;;;8.21
13410;BMP180;6775;49.574;11.170;2024-02-23T13:06:04;95819.19;;;8.21
13410;BMP180;6775;49.574;11.170;2024-02-23T13:08:35;95817.91;;;8.17
13410;BMP180;6775;49.574;11.170;2024-02-23T13:11:05;95833.13;;;8.09
13410;BMP180;6775;49.574;11.170;2024-02-23T13:13:34;95832.34;;;8.08
13410;BMP180;6775;49.574;11.170;2024-02-23T13:16:03;95824.38;;;8.11
13410;BMP180;6775;49.574;11.170;2024-02-23T13:18:31;95833.66;;;8.12
13410;BMP180;6775;49.574;11.170;2024-02-23T13:21:02;95842.81;;;8.15
13410;BMP180;6775;49.574;11.170;2024-02-23T13:23:30;95845.06;;;8.18
13410;BMP180;6775;49.574;11.170;2024-02-23T13:26:00;95850.47;;;8.15
13410;BMP180;6775;49.574;11.170;2024-02-23T13:28:29;95852.66;;;8.10
13410;BMP180;6775;49.574;11.170;2024-02-23T13:30:58;95844.00;;;8.11
13410;BMP180;6775;49.574;11.170;2024-02-23T13:33:26;95850.47;;;8.15
13410;BMP180;6775;49.574;11.170;2024-02-23T13:35:54;95858.94;;;8.15
13410;BMP180;6775;49.574;11.170;2024-02-23T13:38:23;95856.91;;;8.19
13410;BMP180;6775;49.574;11.170;2024-02-23T13:40:51;95852.44;;;8.21
13410;BMP180;6775;49.574;11.170;2024-02-23T13:43:20;95855.31;;;8.18
13410;BMP180;6775;49.574;11.170;2024-02-23T13:45:50;95864.59;;;8.19
13410;BMP180;6775;49.574;11.170;2024-02-23T13:48:19;95855.38;;;8.26
13410;BMP180;6775;49.574;11.170;2024-02-23T13:50:48;95860.06;;;8.30
13410;BMP180;6775;49.574;11.170;2024-02-23T13:53:17;95860.06;;;8.30
13410;BMP180;6775;49.574;11.170;2024-02-23T13:55:45;95860.66;;;8.24
13410;BMP180;6775;49.574;11.170;2024-02-23T13:58:13;95853.13;;;8.23
13410;BMP180;6775;49.574;11.170;2024-02-23T14:00:43;95843.53;;;8.25
13410;BMP180;6775;49.574;11.170;2024-02-23T14:03:17;95838.13;;;8.28
13410;BMP180;6775;49.574;11.170;2024-02-23T14:05:46;95839.38;;;8.24
13410;BMP180;6775;49.574;11.170;2024-02-23T14:08:14;95841.28;;;8.22
13410;BMP180;6775;49.574;11.170;2024-02-23T14:10:43;95835.22;;;8.23
13410;BMP180;6775;49.574;11.170;2024-02-23T14:13:15;95832.34;;;8.26
13410;BMP180;6775;49.574;11.170;2024-02-23T14:15:44;95825.63;;;8.25
13410;BMP180;6775;49.574;11.170;2024-02-23T14:18:13;95826.22;;;8.19
13410;BMP180;6775;49.574;11.170;2024-02-23T14:20:42;95821.09;;;8.19
13410;BMP180;6775;49.574;11.170;2024-02-23T14:23:11;95811.50;;;8.21
13410;BMP180;6775;49.574;11.170;2024-02-23T14:25:39;95821.59;;;8.22
13410;BMP180;6775;49.574;11.170;2024-02-23T14:28:07;95822.41;;;8.23
13410;BMP180;6775;49.574;11.170;2024-02-23T14:30:36;95820.56;;;8.15
13410;BMP180;6775;49.574;11.170;2024-02-23T14:33:06;95802.81;;;8.14